createdAt,value
2023-03-17T00:01:54.829Z,2.90
2023-03-17T00:04:26.598Z,2.45
2023-03-17T00:06:54.448Z,2.78
2023-03-17T00:09:22.250Z,2.88
2023-03-17T00:11:49.995Z,2.55
2023-03-17T00:14:16.964Z,3.15
2023-03-17T00:16:51.199Z,3.13
2023-03-17T00:19:24.192Z,3.67
2023-03-17T00:21:50.870Z,2.85
2023-03-17T00:24:17.522Z,3.15
2023-03-17T00:26:44.476Z,2.95
2023-03-17T00:29:11.100Z,3.17
2023-03-17T00:31:39.443Z,3.35
2023-03-17T00:34:06.569Z,3.30
2023-03-17T00:36:34.415Z,2.28
2023-03-17T00:39:03.687Z,2.65
2023-03-17T00:41:30.494Z,2.72
2023-03-17T00:43:57.318Z,3.30
2023-03-17T00:46:36.080Z,2.58
2023-03-17T00:49:20.208Z,3.20
2023-03-17T00:51:47.350Z,3.05
2023-03-17T00:54:16.293Z,3.33
2023-03-17T00:56:44.290Z,3.00
2023-03-17T00:59:20.794Z,2.88
2023-03-17T01:01:48.920Z,2.90
2023-03-17T01:04:15.814Z,2.22
2023-03-17T01:06:43.204Z,3.08
2023-03-17T01:09:14.722Z,3.53
2023-03-17T01:11:42.677Z,2.53
2023-03-17T01:14:10.651Z,3.17
2023-03-17T01:16:37.535Z,2.88
2023-03-17T01:19:04.656Z,2.85
2023-03-17T01:21:31.411Z,2.40
2023-03-17T01:23:58.624Z,3.10
2023-03-17T01:26:26.141Z,2.72
2023-03-17T01:28:52.805Z,3.00
2023-03-17T01:31:20.487Z,2.95
2023-03-17T01:33:47.399Z,2.50
2023-03-17T01:36:14.160Z,3.42
2023-03-17T01:38:40.899Z,2.90
2023-03-17T01:41:07.546Z,2.85
2023-03-17T01:43:34.177Z,2.78
2023-03-17T01:46:13.011Z,2.15
2023-03-17T01:49:24.950Z,2.60
2023-03-17T01:51:57.681Z,3.08
2023-03-17T01:54:55.709Z,2.50
2023-03-17T01:57:56.392Z,2.83
2023-03-17T02:00:26.574Z,3.15
2023-03-17T02:02:57.126Z,2.70
2023-03-17T02:05:29.950Z,3.13
2023-03-17T02:07:56.916Z,2.38
2023-03-17T02:10:29.755Z,2.45
2023-03-17T02:13:01.603Z,2.70
2023-03-17T02:15:46.230Z,2.65
2023-03-17T02:20:40.116Z,2.47
2023-03-17T02:23:08.948Z,2.60
2023-03-17T02:25:36.739Z,2.47
2023-03-17T02:28:15.071Z,3.00
2023-03-17T02:30:43.230Z,2.55
2023-03-17T02:33:11.872Z,3.33
2023-03-17T02:35:40.851Z,2.55
2023-03-17T02:38:08.277Z,2.55
2023-03-17T02:40:34.826Z,2.65
2023-03-17T02:43:02.495Z,2.83
2023-03-17T02:45:29.150Z,3.28
2023-03-17T02:47:57.180Z,2.75
2023-03-17T02:50:27.850Z,2.65
2023-03-17T02:52:54.909Z,2.42
2023-03-17T02:55:21.602Z,2.83
2023-03-17T02:57:48.651Z,3.13
2023-03-17T03:00:15.523Z,3.13
2023-03-17T03:02:42.495Z,2.40
2023-03-17T03:05:10.741Z,2.58
2023-03-17T03:07:37.434Z,2.85
2023-03-17T03:10:05.470Z,2.20
2023-03-17T03:12:33.471Z,2.63
2023-03-17T03:15:00.697Z,2.25
2023-03-17T03:17:27.284Z,3.10
2023-03-17T03:19:53.948Z,2.75
2023-03-17T03:22:20.561Z,2.50
2023-03-17T03:24:47.082Z,2.47
2023-03-17T03:27:13.755Z,3.00
2023-03-17T03:29:41.692Z,2.50
2023-03-17T03:32:09.034Z,3.13
2023-03-17T03:34:35.650Z,2.67
2023-03-17T03:37:02.212Z,2.75
2023-03-17T03:39:28.742Z,1.63
2023-03-17T03:41:58.335Z,2.28
2023-03-17T03:44:25.550Z,2.88
2023-03-17T03:46:52.557Z,2.72
2023-03-17T03:49:19.237Z,2.85
2023-03-17T03:51:46.047Z,2.97
2023-03-17T03:54:12.592Z,2.75
2023-03-17T03:56:39.175Z,2.03
2023-03-17T03:59:06.197Z,2.33
2023-03-17T04:01:32.891Z,2.22
2023-03-17T04:03:59.474Z,2.25
2023-03-17T04:06:26.322Z,1.90
2023-03-17T04:08:53.058Z,2.30
2023-03-17T04:11:19.905Z,2.53
2023-03-17T04:13:46.443Z,2.40
2023-03-17T04:16:13.199Z,2.40
2023-03-17T04:18:39.930Z,2.08
2023-03-17T04:21:08.275Z,2.10
2023-03-17T04:23:34.835Z,2.10
2023-03-17T04:26:01.532Z,2.05
2023-03-17T04:28:28.103Z,2.53
2023-03-17T04:30:54.917Z,1.90
2023-03-17T04:33:21.568Z,2.50
2023-03-17T04:35:48.228Z,2.03
2023-03-17T04:38:14.814Z,2.17
2023-03-17T04:40:41.536Z,2.55
2023-03-17T04:43:09.068Z,1.85
2023-03-17T04:45:37.190Z,2.63
2023-03-17T04:48:04.228Z,2.28
2023-03-17T04:50:33.330Z,2.58
2023-03-17T04:53:00.296Z,3.70
2023-03-17T04:55:27.542Z,3.60
2023-03-17T04:57:54.166Z,3.42
2023-03-17T05:00:21.551Z,7.43
2023-03-17T05:02:48.204Z,2.78
2023-03-17T05:05:14.965Z,2.45
2023-03-17T05:07:42.011Z,1.92
2023-03-17T05:10:09.373Z,2.10
2023-03-17T05:12:36.112Z,2.13
2023-03-17T05:15:02.921Z,1.80
2023-03-17T05:17:29.646Z,1.50
2023-03-17T05:19:56.399Z,2.33
2023-03-17T05:22:23.457Z,1.80
2023-03-17T05:24:50.992Z,2.17
2023-03-17T05:27:17.640Z,2.28
2023-03-17T05:29:44.220Z,1.77
2023-03-17T05:32:10.747Z,2.63
2023-03-17T05:34:37.313Z,1.80
2023-03-17T05:37:03.856Z,2.33
2023-03-17T05:39:30.843Z,2.35
2023-03-17T05:41:57.817Z,2.00
2023-03-17T05:44:24.783Z,2.40
2023-03-17T05:46:51.680Z,2.20
2023-03-17T05:49:19.179Z,2.10
2023-03-17T05:51:46.480Z,1.70
2023-03-17T05:54:13.798Z,1.88
2023-03-17T05:56:40.471Z,1.95
2023-03-17T05:59:07.020Z,1.50
2023-03-17T06:01:33.617Z,1.40
2023-03-17T06:04:01.652Z,1.65
2023-03-17T06:06:28.843Z,1.60
2023-03-17T06:08:55.500Z,1.88
2023-03-17T06:11:22.090Z,1.55
2023-03-17T06:13:48.988Z,1.38
2023-03-17T06:16:16.026Z,2.17
2023-03-17T06:18:43.047Z,1.73
2023-03-17T06:21:10.457Z,1.50
2023-03-17T06:23:37.236Z,1.60
2023-03-17T06:26:04.400Z,1.75
2023-03-17T06:28:31.240Z,1.63
2023-03-17T06:30:58.717Z,1.27
2023-03-17T06:33:26.052Z,1.63
2023-03-17T06:35:52.715Z,1.90
2023-03-17T06:38:20.799Z,1.60
2023-03-17T06:40:47.924Z,1.52
2023-03-17T06:43:14.776Z,1.60
2023-03-17T06:45:41.695Z,1.73
2023-03-17T06:48:08.409Z,1.85
2023-03-17T06:50:35.363Z,1.67
2023-03-17T06:53:01.978Z,2.17
2023-03-17T06:55:29.093Z,1.80
2023-03-17T06:57:56.231Z,10.30
2023-03-17T11:31:54.724Z,1.15
2023-03-17T11:34:36.440Z,1.02
2023-03-17T11:37:44.389Z,1.42
2023-03-17T11:40:19.649Z,0.73
2023-03-17T11:43:33.569Z,1.33
2023-03-17T11:46:13.271Z,0.80
2023-03-17T11:49:00.756Z,0.60
2023-03-17T11:51:56.654Z,1.80
2023-03-17T11:54:42.120Z,0.90
2023-03-17T11:57:27.138Z,0.80
2023-03-17T12:00:03.371Z,0.80
2023-03-17T12:02:47.613Z,1.13
2023-03-17T12:05:24.144Z,1.10
2023-03-17T12:08:07.801Z,1.00
2023-03-17T12:10:41.930Z,0.82
2023-03-17T12:13:15.675Z,0.82
2023-03-17T12:15:52.981Z,1.05
2023-03-17T12:18:26.486Z,1.30
2023-03-17T12:21:24.132Z,0.80
2023-03-17T12:24:02.337Z,1.02
2023-03-17T12:26:35.310Z,0.85
2023-03-17T12:29:24.759Z,0.63
2023-03-17T12:32:05.515Z,0.70
2023-03-17T12:34:51.157Z,0.77
2023-03-17T12:37:18.718Z,0.65
2023-03-17T12:39:55.945Z,0.90
2023-03-17T12:42:53.614Z,0.90
2023-03-17T12:45:54.452Z,0.63
2023-03-17T12:48:43.418Z,0.75
2023-03-17T12:51:44.654Z,0.68
2023-03-17T12:54:33.399Z,0.90
2023-03-17T12:57:13.043Z,0.47
2023-03-17T12:59:43.985Z,0.70
2023-03-17T13:02:28.975Z,0.70
2023-03-17T13:05:00.945Z,0.75
2023-03-17T13:07:52.670Z,0.60
2023-03-17T13:10:19.174Z,1.13
2023-03-17T13:12:48.749Z,0.70
2023-03-17T13:15:21.568Z,0.70
2023-03-17T13:17:48.236Z,0.95
2023-03-17T13:20:20.637Z,0.57
2023-03-17T13:23:17.533Z,0.82
2023-03-17T13:25:53.426Z,0.70
2023-03-17T13:28:34.875Z,0.90
2023-03-17T13:31:13.797Z,0.70
2023-03-17T13:33:44.618Z,0.65
2023-03-17T13:36:19.346Z,0.80
2023-03-17T13:39:19.173Z,0.75
2023-03-17T13:42:05.575Z,0.60
2023-03-17T13:45:08.169Z,0.60
2023-03-17T13:47:38.309Z,0.52
2023-03-17T13:50:12.539Z,0.60
2023-03-17T13:52:48.429Z,0.80
2023-03-17T13:55:17.954Z,0.63
2023-03-17T13:58:08.684Z,0.77
2023-03-17T14:00:43.611Z,0.60
2023-03-17T14:03:15.888Z,0.70
2023-03-17T14:05:46.377Z,0.85
2023-03-17T14:08:18.380Z,0.82
2023-03-17T14:10:53.624Z,0.40
2023-03-17T14:13:24.334Z,0.65
2023-03-17T14:15:57.042Z,0.90
2023-03-17T14:18:32.766Z,0.80
2023-03-17T14:21:02.702Z,0.77
2023-03-17T14:23:29.908Z,0.47
2023-03-17T14:25:58.649Z,0.60
2023-03-17T14:28:28.487Z,0.70
2023-03-17T14:31:01.091Z,0.47
2023-03-17T14:33:34.536Z,0.63
2023-03-17T14:36:03.138Z,0.40
2023-03-17T14:38:35.723Z,0.57
2023-03-17T14:41:23.913Z,1.00
2023-03-17T14:43:56.115Z,0.63
2023-03-17T14:46:37.903Z,0.80
2023-03-17T14:49:24.770Z,0.70
2023-03-17T14:51:57.306Z,0.68
2023-03-17T14:54:31.711Z,0.95
2023-03-17T14:57:06.486Z,0.75
2023-03-17T14:59:40.746Z,0.90
2023-03-17T15:02:16.531Z,0.75
2023-03-17T15:04:53.673Z,0.85
2023-03-17T15:07:40.455Z,0.55
2023-03-17T15:10:15.801Z,0.65
2023-03-17T15:12:43.051Z,2.05
2023-03-17T15:15:26.384Z,0.68
2023-03-17T15:17:59.340Z,1.20
2023-03-17T15:20:33.784Z,0.90
2023-03-17T15:23:25.063Z,0.80
2023-03-17T15:25:56.797Z,0.95
2023-03-17T15:28:28.252Z,0.80
2023-03-17T15:31:08.746Z,0.77
2023-03-17T15:33:45.689Z,0.70
2023-03-17T15:36:31.407Z,0.73
2023-03-17T15:38:59.331Z,1.23
2023-03-17T15:41:26.145Z,0.68
2023-03-17T15:43:53.587Z,0.70
2023-03-17T15:46:31.121Z,1.10
2023-03-17T15:48:58.137Z,1.05
2023-03-17T15:51:24.788Z,0.68
2023-03-17T15:53:51.470Z,0.93
2023-03-17T15:56:20.975Z,1.13
2023-03-17T15:58:49.321Z,0.90
2023-03-17T16:01:16.658Z,0.50
2023-03-17T16:03:45.452Z,0.75
2023-03-17T16:08:42.853Z,1.00
2023-03-17T16:11:15.189Z,0.80
2023-03-17T16:13:41.910Z,0.50
2023-03-17T16:16:17.063Z,0.80
2023-03-17T16:18:44.050Z,0.93
2023-03-17T16:21:11.582Z,0.60
2023-03-17T16:23:38.118Z,1.13
2023-03-17T16:26:15.044Z,0.80
2023-03-17T16:28:44.738Z,0.60
2023-03-17T16:31:25.472Z,1.00
2023-03-17T16:33:53.584Z,1.08
2023-03-17T16:36:21.792Z,0.43
2023-03-17T16:38:49.791Z,0.80
2023-03-17T16:41:27.354Z,0.68
2023-03-17T16:44:01.220Z,1.10
2023-03-17T16:46:34.056Z,0.75
2023-03-17T16:49:01.837Z,1.00
2023-03-17T16:51:28.404Z,1.02
2023-03-17T16:53:55.176Z,0.90
2023-03-17T16:56:25.099Z,1.17
2023-03-17T16:58:51.692Z,0.60
2023-03-17T17:01:21.877Z,0.85
2023-03-17T17:03:48.792Z,0.88
2023-03-17T17:06:15.859Z,0.70
2023-03-17T17:08:49.004Z,0.93
2023-03-17T17:11:17.961Z,0.60
2023-03-17T17:13:46.344Z,1.17
2023-03-17T17:16:27.704Z,1.05
2023-03-17T17:18:54.858Z,0.80
2023-03-17T17:21:21.408Z,1.00
2023-03-17T17:23:47.977Z,0.70
2023-03-17T17:26:14.900Z,0.85
2023-03-17T17:28:41.493Z,0.52
2023-03-17T17:31:09.119Z,0.70
2023-03-17T17:33:36.676Z,0.80
2023-03-17T17:36:11.590Z,1.27
2023-03-17T17:38:38.254Z,2.40
2023-03-17T17:41:08.920Z,1.90
2023-03-17T17:43:35.586Z,2.90
2023-03-17T17:46:02.151Z,6.30
2023-03-17T17:48:29.201Z,2.72
2023-03-17T17:50:56.848Z,1.17
2023-03-17T17:53:24.190Z,1.00
2023-03-17T17:55:51.807Z,1.10
2023-03-17T17:58:21.590Z,4.13
2023-03-17T18:00:48.820Z,1.60
2023-03-17T18:03:15.549Z,1.20
2023-03-17T18:05:42.161Z,0.80
2023-03-17T18:08:08.695Z,0.75
2023-03-17T18:10:35.332Z,0.98
2023-03-17T18:13:01.912Z,0.90
2023-03-17T18:15:28.985Z,0.73
2023-03-17T18:17:56.401Z,0.57
2023-03-17T18:20:24.036Z,0.80
2023-03-17T18:22:51.576Z,1.02
2023-03-17T18:25:19.508Z,1.10
2023-03-17T18:27:58.008Z,1.38
2023-03-17T18:30:28.366Z,0.98
2023-03-17T18:32:58.331Z,1.35
2023-03-17T18:35:27.888Z,1.35
2023-03-17T18:37:57.305Z,1.60
2023-03-17T18:40:25.071Z,1.20
2023-03-17T18:42:51.590Z,1.23
2023-03-17T18:45:18.332Z,1.25
2023-03-17T18:47:45.290Z,0.93
2023-03-17T18:50:13.672Z,1.10
2023-03-17T18:52:42.018Z,1.08
2023-03-17T18:55:11.108Z,1.40
2023-03-17T18:57:38.295Z,2.03
2023-03-17T19:00:08.635Z,0.98
2023-03-17T19:02:35.781Z,1.45
2023-03-17T19:05:02.445Z,1.00
2023-03-17T19:07:29.405Z,0.90
2023-03-17T19:09:56.108Z,0.73
2023-03-17T19:12:24.464Z,1.00
2023-03-17T19:14:52.196Z,1.58
2023-03-17T19:17:18.876Z,0.82
2023-03-17T19:19:45.580Z,1.48
2023-03-17T19:22:12.244Z,1.13
2023-03-17T19:24:38.977Z,0.88
2023-03-17T19:27:05.702Z,0.73
2023-03-17T19:29:33.499Z,0.70
2023-03-17T19:32:00.517Z,1.67
2023-03-17T19:34:30.102Z,0.82
2023-03-17T19:36:57.054Z,1.00
2023-03-17T19:39:23.831Z,0.80
2023-03-17T19:41:54.953Z,1.10
2023-03-17T19:44:22.328Z,1.10
2023-03-17T19:46:49.463Z,1.30
2023-03-17T19:49:16.515Z,1.20
2023-03-17T19:51:43.800Z,1.38
2023-03-17T19:54:11.152Z,1.00
2023-03-17T19:56:38.650Z,1.02
2023-03-17T19:59:06.611Z,1.35
2023-03-17T20:01:34.125Z,1.20
2023-03-17T20:04:01.131Z,1.08
2023-03-17T20:06:28.097Z,0.77
2023-03-17T20:08:54.669Z,1.20
2023-03-17T20:11:21.692Z,0.90
2023-03-17T20:13:48.335Z,0.98
2023-03-17T20:16:16.467Z,0.80
2023-03-17T20:18:43.027Z,0.65
2023-03-17T20:21:13.751Z,0.88
2023-03-17T20:23:40.317Z,1.52
2023-03-17T20:26:07.492Z,1.38
2023-03-17T20:28:34.347Z,1.85
2023-03-17T20:31:03.176Z,1.17
2023-03-17T20:33:31.706Z,1.30
2023-03-17T20:35:58.319Z,0.98
2023-03-17T20:38:25.597Z,0.80
2023-03-17T20:40:52.536Z,0.82
2023-03-17T20:43:19.362Z,1.10
2023-03-17T20:45:45.918Z,0.82
2023-03-17T20:48:13.298Z,0.88
2023-03-17T20:50:40.944Z,0.90
2023-03-17T20:53:07.523Z,0.93
2023-03-17T20:55:34.171Z,0.68
2023-03-17T20:58:01.724Z,0.90
2023-03-17T21:00:30.234Z,1.40
2023-03-17T21:02:57.092Z,1.40
2023-03-17T21:05:26.449Z,1.83
2023-03-17T21:07:53.351Z,1.95
2023-03-17T21:10:20.644Z,1.33
2023-03-17T21:12:48.135Z,1.27
2023-03-17T21:15:15.240Z,0.93
2023-03-17T21:17:42.407Z,1.38
2023-03-17T21:20:12.261Z,1.73
2023-03-17T21:22:39.916Z,1.58
2023-03-17T21:25:08.654Z,2.78
2023-03-17T21:27:37.657Z,3.83
2023-03-17T21:30:09.722Z,6.50
2023-03-17T21:32:36.463Z,6.43
2023-03-17T21:35:03.817Z,5.40
2023-03-17T21:37:30.457Z,3.40
2023-03-17T21:39:57.055Z,3.97
2023-03-17T21:42:24.704Z,3.13
2023-03-17T21:44:52.232Z,2.35
2023-03-17T21:47:19.588Z,1.88
2023-03-17T21:49:46.887Z,2.47
2023-03-17T21:52:14.948Z,1.85
2023-03-17T21:54:41.855Z,1.17
2023-03-17T21:57:08.570Z,1.30
2023-03-17T21:59:35.680Z,1.13
2023-03-17T22:02:02.818Z,1.40
2023-03-17T22:04:30.084Z,0.68
2023-03-17T22:06:58.704Z,0.82
2023-03-17T22:09:25.994Z,0.77
2023-03-17T22:11:52.586Z,1.00
2023-03-17T22:14:20.558Z,0.70
2023-03-17T22:16:48.804Z,1.08
2023-03-17T22:19:16.918Z,0.73
2023-03-17T22:21:44.346Z,0.90
2023-03-17T23:03:58.282Z,1.40
2023-03-17T23:06:25.776Z,1.20
2023-03-17T23:08:52.424Z,1.92
2023-03-17T23:11:25.102Z,1.40
2023-03-17T23:13:52.599Z,1.00
2023-03-17T23:16:20.265Z,1.08
2023-03-17T23:18:47.193Z,0.88
2023-03-17T23:21:32.430Z,0.63
2023-03-17T23:23:59.980Z,0.63
2023-03-17T23:26:27.972Z,0.80
2023-03-17T23:28:54.699Z,1.00
2023-03-17T23:31:22.494Z,0.80
2023-03-17T23:33:50.411Z,0.93
2023-03-17T23:36:17.476Z,0.90
2023-03-17T23:38:45.500Z,0.80
2023-03-17T23:41:13.372Z,0.57
2023-03-17T23:43:40.506Z,0.93
2023-03-17T23:46:07.200Z,0.80
2023-03-17T23:48:33.925Z,1.02
2023-03-17T23:51:01.079Z,0.98
2023-03-17T23:53:28.322Z,0.77
2023-03-17T23:55:55.203Z,0.88
2023-03-17T23:58:22.784Z,1.63
